Time;durP1;ratioP1;P1;durP2;ratioP2;P2;SDS_P1;SDS_P2;PMS_P1;PMS_P2;Temp;Humidity;BMP_temperature;BMP_pressure;BME280_temperature;BME280_humidity;BME280_pressure;Samples;Min_cycle;Max_cycle;Signal;HPM_P1;HPM_P2
2021/05/23 00:00:39;;;;;;;;;;;12.50;93.70;;;;;;5055680;28;19965;-78
2021/05/23 00:03:08;;;;;;;;;;;12.50;93.90;;;;;;5061809;28;19963;-78
2021/05/23 00:05:38;;;;;;;;;;;12.50;94.10;;;;;;5042273;28;19928;-78
2021/05/23 00:08:08;;;;;;;;;;;12.50;94.30;;;;;;5041054;28;20300;-77
2021/05/23 00:10:37;;;;;;;;;;;12.50;94.40;;;;;;5043908;28;19925;-77
2021/05/23 00:13:07;;;;;;;;;;;12.50;94.60;;;;;;5027282;28;19931;-78
2021/05/23 00:15:36;;;;;;;;;;;12.50;94.80;;;;;;5041216;28;19933;-77
2021/05/23 00:18:05;;;;;;;;;;;12.40;95.00;;;;;;5043035;28;19984;-78
2021/05/23 00:20:34;;;;;;;;;;;12.50;95.20;;;;;;5059923;28;19925;-78
2021/05/23 00:23:03;;;;;;;;;;;12.40;95.40;;;;;;5059078;28;19924;-78
2021/05/23 00:25:31;;;;;;;;;;;12.40;95.60;;;;;;5030703;28;19929;-77
2021/05/23 00:27:59;;;;;;;;;;;12.30;95.90;;;;;;5059625;28;19925;-77
2021/05/23 00:30:30;;;;;;;;;;;12.30;96.10;;;;;;5042394;28;19971;-78
2021/05/23 00:32:58;;;;;;;;;;;12.30;96.30;;;;;;5046315;28;19925;-80
2021/05/23 00:35:26;;;;;;;;;;;12.30;96.90;;;;;;5029566;28;19919;-79
2021/05/23 00:37:54;;;;;;;;;;;12.20;97.20;;;;;;5041598;28;19964;-77
2021/05/23 00:40:22;;;;;;;;;;;12.20;97.40;;;;;;5044129;28;19936;-79
2021/05/23 00:42:50;;;;;;;;;;;12.20;97.50;;;;;;5043662;28;19924;-77
2021/05/23 00:45:19;;;;;;;;;;;12.10;97.70;;;;;;5025068;28;20416;-77
2021/05/23 00:47:48;;;;;;;;;;;12.10;97.90;;;;;;5044347;28;19932;-77
2021/05/23 00:50:18;;;;;;;;;;;12.10;97.90;;;;;;5043121;28;19925;-77
2021/05/23 00:52:46;;;;;;;;;;;12.10;98.20;;;;;;5041152;28;19925;-77
2021/05/23 00:55:14;;;;;;;;;;;12.00;98.30;;;;;;5027484;28;19949;-78
2021/05/23 00:57:46;;;;;;;;;;;12.00;98.50;;;;;;5059054;28;19956;-79
2021/05/23 01:00:34;;;;;;;;;;;12.00;98.90;;;;;;5025054;28;19979;-77
2021/05/23 01:03:04;;;;;;;;;;;12.00;99.00;;;;;;5047079;28;19928;-80
2021/05/23 01:05:32;;;;;;;;;;;11.90;99.20;;;;;;5045437;28;19929;-78
2021/05/23 01:07:59;;;;;;;;;;;11.90;99.30;;;;;;5029954;28;19949;-78
2021/05/23 01:10:27;;;;;;;;;;;11.90;99.40;;;;;;5047175;28;20291;-78
2021/05/23 01:13:21;;;;;;;;;;;11.90;99.60;;;;;;5047888;28;19925;-78
2021/05/23 01:15:49;;;;;;;;;;;11.90;99.70;;;;;;5047167;28;19936;-78
2021/05/23 01:18:22;;;;;;;;;;;11.90;99.70;;;;;;5043821;28;19951;-78
2021/05/23 01:20:53;;;;;;;;;;;11.90;99.80;;;;;;5048511;28;19924;-78
2021/05/23 01:23:26;;;;;;;;;;;11.90;99.90;;;;;;5029068;28;19939;-77
2021/05/23 01:26:02;;;;;;;;;;;11.80;99.90;;;;;;5061979;28;19943;-77
2021/05/23 01:28:36;;;;;;;;;;;11.80;99.90;;;;;;5043614;28;19925;-76
2021/05/23 01:31:06;;;;;;;;;;;11.80;99.90;;;;;;5055262;28;19952;-77
2021/05/23 01:33:34;;;;;;;;;;;11.80;99.90;;;;;;5048259;28;19924;-78
2021/05/23 01:36:02;;;;;;;;;;;11.70;99.90;;;;;;5068584;28;20117;-78
2021/05/23 01:38:30;;;;;;;;;;;11.70;99.90;;;;;;5047963;28;20191;-79
2021/05/23 01:41:01;;;;;;;;;;;11.70;99.90;;;;;;5052261;28;19912;-78
2021/05/23 01:43:30;;;;;;;;;;;11.80;99.90;;;;;;5067026;28;19932;-80
2021/05/23 01:46:13;;;;;;;;;;;11.80;99.90;;;;;;5060417;28;20369;-82
2021/05/23 01:48:54;;;;;;;;;;;11.90;99.90;;;;;;5065079;28;20332;-77
2021/05/23 01:51:22;;;;;;;;;;;11.80;99.90;;;;;;5048032;28;19975;-77
2021/05/23 01:53:53;;;;;;;;;;;11.90;99.90;;;;;;5026980;28;19931;-79
2021/05/23 01:56:21;;;;;;;;;;;11.80;99.90;;;;;;5043131;28;19931;-78
2021/05/23 01:58:49;;;;;;;;;;;11.70;99.90;;;;;;5044179;28;19925;-77
2021/05/23 02:01:17;;;;;;;;;;;11.80;99.90;;;;;;5054017;28;19944;-77
2021/05/23 02:03:46;;;;;;;;;;;11.70;99.90;;;;;;5066832;28;19913;-79
2021/05/23 02:06:14;;;;;;;;;;;11.70;99.90;;;;;;5080859;28;19983;-79
2021/05/23 02:08:43;;;;;;;;;;;11.60;99.90;;;;;;5045365;28;19982;-80
2021/05/23 02:11:11;;;;;;;;;;;11.40;99.90;;;;;;5066805;28;19924;-78
2021/05/23 02:13:40;;;;;;;;;;;11.30;99.90;;;;;;5080514;28;20391;-78
2021/05/23 02:16:08;;;;;;;;;;;11.20;99.90;;;;;;5043585;28;19924;-77
2021/05/23 02:18:37;;;;;;;;;;;11.10;99.90;;;;;;5077129;28;19925;-78
2021/05/23 02:21:05;;;;;;;;;;;11.10;99.90;;;;;;5062582;28;19967;-79
2021/05/23 02:23:34;;;;;;;;;;;11.00;99.90;;;;;;5048966;28;19924;-77
2021/05/23 02:26:02;;;;;;;;;;;11.00;99.90;;;;;;5062891;28;20493;-78
2021/05/23 02:28:30;;;;;;;;;;;11.10;99.90;;;;;;5079883;28;19925;-80
2021/05/23 02:31:01;;;;;;;;;;;11.20;99.90;;;;;;5060971;28;19928;-78
2021/05/23 02:33:29;;;;;;;;;;;11.20;99.90;;;;;;5062754;28;20411;-78
2021/05/23 02:35:57;;;;;;;;;;;11.30;99.90;;;;;;5063536;28;19924;-78
2021/05/23 02:38:26;;;;;;;;;;;11.20;99.90;;;;;;5061943;28;19956;-78
2021/05/23 02:40:56;;;;;;;;;;;11.10;99.90;;;;;;5080707;28;19924;-78
2021/05/23 02:43:24;;;;;;;;;;;11.20;99.90;;;;;;5046410;28;19967;-78
2021/05/23 02:45:52;;;;;;;;;;;11.30;99.90;;;;;;5045550;28;19925;-78
2021/05/23 02:48:21;;;;;;;;;;;11.50;99.90;;;;;;5061486;28;19924;-80
2021/05/23 02:50:50;;;;;;;;;;;11.30;99.90;;;;;;5061839;28;19931;-79
2021/05/23 02:53:17;;;;;;;;;;;11.10;99.90;;;;;;5061034;28;19929;-78
2021/05/23 02:55:46;;;;;;;;;;;11.20;99.90;;;;;;5081763;28;19947;-78
2021/05/23 02:58:15;;;;;;;;;;;11.10;99.90;;;;;;5077280;28;20330;-80
2021/05/23 03:00:43;;;;;;;;;;;11.10;99.90;;;;;;5060264;28;20280;-78
2021/05/23 03:03:11;;;;;;;;;;;11.10;99.90;;;;;;5062743;28;20019;-79
2021/05/23 03:05:41;;;;;;;;;;;10.90;99.90;;;;;;5060873;28;20074;-77
2021/05/23 03:08:09;;;;;;;;;;;10.90;99.90;;;;;;5064574;28;20023;-78
2021/05/23 03:10:38;;;;;;;;;;;11.00;99.90;;;;;;5063145;28;20434;-77
2021/05/23 03:13:06;;;;;;;;;;;11.20;99.90;;;;;;5046531;28;19935;-78
2021/05/23 03:15:34;;;;;;;;;;;11.00;99.90;;;;;;5044677;28;19936;-79
2021/05/23 03:18:03;;;;;;;;;;;11.00;99.90;;;;;;5082280;28;20031;-80
2021/05/23 03:20:32;;;;;;;;;;;10.80;99.90;;;;;;5060246;28;19928;-78
2021/05/23 03:23:01;;;;;;;;;;;10.80;99.90;;;;;;5061685;28;19951;-79
2021/05/23 03:25:30;;;;;;;;;;;10.80;99.90;;;;;;5046308;28;19924;-80
2021/05/23 03:27:58;;;;;;;;;;;10.80;99.90;;;;;;5045350;28;19925;-78
2021/05/23 03:30:27;;;;;;;;;;;10.70;99.90;;;;;;5064332;28;19924;-78
2021/05/23 03:33:20;;;;;;;;;;;10.70;99.90;;;;;;5065804;28;19931;-79
2021/05/23 03:35:49;;;;;;;;;;;10.70;99.90;;;;;;5064667;28;20380;-77
2021/05/23 03:38:18;;;;;;;;;;;10.60;99.90;;;;;;5046039;28;19963;-80
2021/05/23 03:40:46;;;;;;;;;;;10.60;99.90;;;;;;5046737;28;19924;-79
2021/05/23 03:43:14;;;;;;;;;;;10.50;99.90;;;;;;5079679;28;20073;-80
2021/05/23 03:45:42;;;;;;;;;;;10.40;99.90;;;;;;5062793;28;19925;-77
2021/05/23 03:48:10;;;;;;;;;;;10.40;99.90;;;;;;5062258;28;19925;-79
2021/05/23 03:50:38;;;;;;;;;;;10.30;99.90;;;;;;5061138;28;19929;-78
2021/05/23 03:53:07;;;;;;;;;;;10.30;99.90;;;;;;5046033;28;20387;-77
2021/05/23 03:55:36;;;;;;;;;;;10.30;99.90;;;;;;5027036;28;19931;-78
2021/05/23 03:58:05;;;;;;;;;;;10.20;99.90;;;;;;5060775;28;19928;-77
2021/05/23 04:00:35;;;;;;;;;;;10.10;99.90;;;;;;5042818;28;20022;-78
2021/05/23 04:03:04;;;;;;;;;;;9.90;99.90;;;;;;5060699;28;20031;-78
2021/05/23 04:05:32;;;;;;;;;;;9.90;99.90;;;;;;5060060;28;19925;-78
2021/05/23 04:08:00;;;;;;;;;;;9.70;99.90;;;;;;5061046;28;19931;-78
2021/05/23 04:10:31;;;;;;;;;;;9.60;99.90;;;;;;5060712;28;19932;-79
2021/05/23 04:13:01;;;;;;;;;;;9.70;99.90;;;;;;5043954;28;20241;-78
2021/05/23 04:15:29;;;;;;;;;;;9.80;99.90;;;;;;5060862;28;19971;-78
2021/05/23 04:17:58;;;;;;;;;;;9.90;99.90;;;;;;5078065;28;19920;-77
2021/05/23 04:20:27;;;;;;;;;;;10.00;99.90;;;;;;5043877;28;20356;-78
2021/05/23 04:22:56;;;;;;;;;;;9.90;99.90;;;;;;5042676;28;20273;-79
2021/05/23 04:25:24;;;;;;;;;;;10.00;99.90;;;;;;5058536;28;19935;-78
2021/05/23 04:27:53;;;;;;;;;;;10.00;99.90;;;;;;5042889;28;19921;-80
2021/05/23 04:30:24;;;;;;;;;;;10.00;99.90;;;;;;5059103;28;19959;-77
2021/05/23 04:32:52;;;;;;;;;;;10.00;99.90;;;;;;5059552;28;19920;-78
2021/05/23 04:35:20;;;;;;;;;;;10.10;99.90;;;;;;5060929;28;19928;-78
2021/05/23 04:37:48;;;;;;;;;;;10.20;99.90;;;;;;5064530;28;20037;-78
2021/05/23 04:40:17;;;;;;;;;;;10.30;99.90;;;;;;5048130;28;19920;-80
2021/05/23 04:42:45;;;;;;;;;;;10.30;99.90;;;;;;5082275;28;19971;-78
2021/05/23 04:45:34;;;;;;;;;;;10.10;99.90;;;;;;5062673;28;19927;-78
2021/05/23 04:48:02;;;;;;;;;;;10.20;99.90;;;;;;5062653;28;19978;-78
2021/05/23 04:50:31;;;;;;;;;;;10.20;99.90;;;;;;5062473;28;19943;-78
2021/05/23 04:52:58;;;;;;;;;;;10.30;99.90;;;;;;5079180;28;20372;-77
2021/05/23 04:55:26;;;;;;;;;;;10.20;99.90;;;;;;5048101;28;19920;-78
2021/05/23 04:57:54;;;;;;;;;;;10.20;99.90;;;;;;5064704;28;20284;-79
2021/05/23 05:00:22;;;;;;;;;;;10.20;99.90;;;;;;5062853;28;20000;-77
2021/05/23 05:02:51;;;;;;;;;;;10.20;99.90;;;;;;5081473;28;19927;-77
2021/05/23 05:08:16;;;;;;;;;;;10.30;99.90;;;;;;5064362;28;19961;-77
2021/05/23 05:10:52;;;;;;;;;;;10.10;99.90;;;;;;5062862;28;19956;-80
2021/05/23 05:13:20;;;;;;;;;;;10.10;99.90;;;;;;5046549;28;19920;-78
2021/05/23 05:15:48;;;;;;;;;;;10.20;99.90;;;;;;5062988;28;19955;-78
2021/05/23 05:18:17;;;;;;;;;;;10.30;99.90;;;;;;5046747;28;20394;-78
2021/05/23 05:20:46;;;;;;;;;;;10.30;99.90;;;;;;5048133;28;19921;-78
2021/05/23 05:23:13;;;;;;;;;;;10.30;99.90;;;;;;5063350;28;19926;-78
2021/05/23 05:25:42;;;;;;;;;;;10.30;99.90;;;;;;5051643;28;19943;-78
2021/05/23 05:28:11;;;;;;;;;;;10.30;99.90;;;;;;5055725;28;19920;-77
2021/05/23 05:30:39;;;;;;;;;;;10.20;99.90;;;;;;5068186;28;19992;-80
2021/05/23 05:33:07;;;;;;;;;;;10.20;99.90;;;;;;5033603;28;19920;-78
2021/05/23 05:35:36;;;;;;;;;;;10.30;99.90;;;;;;5067360;28;19928;-78
2021/05/23 05:38:04;;;;;;;;;;;10.30;99.90;;;;;;5065797;28;19920;-79
2021/05/23 05:40:32;;;;;;;;;;;10.20;99.90;;;;;;5063046;28;19924;-78
2021/05/23 05:43:00;;;;;;;;;;;10.20;99.90;;;;;;5065300;28;19921;-78
2021/05/23 05:45:28;;;;;;;;;;;10.30;99.90;;;;;;5044297;28;19942;-78
2021/05/23 05:47:56;;;;;;;;;;;10.20;99.90;;;;;;5044173;28;19920;-78
2021/05/23 05:50:25;;;;;;;;;;;10.20;99.90;;;;;;5062446;28;19925;-77
2021/05/23 05:52:54;;;;;;;;;;;10.20;99.90;;;;;;5045042;28;19927;-78
2021/05/23 05:55:21;;;;;;;;;;;10.30;99.90;;;;;;5062099;28;19971;-78
2021/05/23 05:57:49;;;;;;;;;;;10.30;99.90;;;;;;5063217;28;19920;-79
2021/05/23 06:00:18;;;;;;;;;;;10.40;99.90;;;;;;5028458;28;20006;-78
2021/05/23 06:02:46;;;;;;;;;;;10.50;99.90;;;;;;5044872;28;19927;-77
2021/05/23 06:05:14;;;;;;;;;;;10.40;99.90;;;;;;5045221;28;19927;-77
2021/05/23 06:08:08;;;;;;;;;;;10.50;99.90;;;;;;5079120;28;20347;-77
2021/05/23 06:10:37;;;;;;;;;;;10.40;99.90;;;;;;5044276;28;19920;-78
2021/05/23 06:13:04;;;;;;;;;;;10.50;99.90;;;;;;5045173;28;19974;-78
2021/05/23 06:15:33;;;;;;;;;;;10.60;99.90;;;;;;5057220;28;19928;-78
2021/05/23 06:18:01;;;;;;;;;;;10.60;99.90;;;;;;5061202;28;19931;-78
2021/05/23 06:20:29;;;;;;;;;;;10.60;99.90;;;;;;5060194;28;19966;-77
2021/05/23 06:22:57;;;;;;;;;;;10.80;99.90;;;;;;5061771;28;19922;-80
2021/05/23 06:25:26;;;;;;;;;;;10.70;99.90;;;;;;5043924;28;19924;-77
2021/05/23 06:27:54;;;;;;;;;;;10.80;99.90;;;;;;5065794;28;19920;-80
2021/05/23 06:30:22;;;;;;;;;;;10.90;99.90;;;;;;5046206;28;20280;-78
2021/05/23 06:32:51;;;;;;;;;;;10.90;99.90;;;;;;5062336;28;19920;-77
2021/05/23 06:35:19;;;;;;;;;;;11.10;99.90;;;;;;5078345;28;20020;-78
2021/05/23 06:37:47;;;;;;;;;;;11.10;99.90;;;;;;5060383;28;19920;-77
2021/05/23 06:40:15;;;;;;;;;;;11.10;99.90;;;;;;5043997;28;19920;-77
2021/05/23 06:42:44;;;;;;;;;;;11.10;99.90;;;;;;5077617;28;19920;-78
2021/05/23 06:45:12;;;;;;;;;;;11.20;99.90;;;;;;5042223;28;19920;-77
2021/05/23 06:47:40;;;;;;;;;;;11.40;99.90;;;;;;5043543;28;20273;-80
2021/05/23 06:50:09;;;;;;;;;;;11.70;99.90;;;;;;5077635;28;19924;-76
2021/05/23 06:52:37;;;;;;;;;;;11.80;99.90;;;;;;5060981;28;19933;-77
2021/05/23 06:55:06;;;;;;;;;;;11.70;99.90;;;;;;5062523;28;19932;-77
2021/05/23 06:57:34;;;;;;;;;;;11.80;99.90;;;;;;5043192;28;19924;-77
2021/05/23 07:00:07;;;;;;;;;;;12.10;99.90;;;;;;5044183;28;19931;-78
2021/05/23 07:02:36;;;;;;;;;;;12.40;99.90;;;;;;5022749;28;19928;-80
2021/05/23 07:05:04;;;;;;;;;;;12.80;99.90;;;;;;5057328;28;19924;-78
2021/05/23 07:07:32;;;;;;;;;;;13.60;99.90;;;;;;5026742;28;19920;-77
2021/05/23 07:10:01;;;;;;;;;;;13.90;99.90;;;;;;5043749;28;19975;-78
2021/05/23 07:12:29;;;;;;;;;;;14.70;99.90;;;;;;5044836;28;19921;-77
2021/05/23 07:14:57;;;;;;;;;;;15.20;99.90;;;;;;5029238;28;20360;-77
2021/05/23 07:17:26;;;;;;;;;;;16.90;99.90;;;;;;5080879;28;19948;-76
2021/05/23 07:19:55;;;;;;;;;;;18.00;97.40;;;;;;5048950;28;19920;-79
2021/05/23 07:22:26;;;;;;;;;;;19.10;95.70;;;;;;5047139;28;19924;-77
2021/05/23 07:24:53;;;;;;;;;;;19.40;93.50;;;;;;5062789;28;19920;-77
2021/05/23 07:27:21;;;;;;;;;;;18.30;93.40;;;;;;5063215;28;19920;-76
2021/05/23 07:29:49;;;;;;;;;;;18.30;95.30;;;;;;5046167;28;20380;-77
2021/05/23 07:32:18;;;;;;;;;;;17.10;94.50;;;;;;5062290;28;19921;-77
2021/05/23 07:34:46;;;;;;;;;;;15.80;97.90;;;;;;5042822;28;19931;-74
2021/05/23 07:37:14;;;;;;;;;;;14.80;99.50;;;;;;5026151;28;19927;-73
2021/05/23 07:39:44;;;;;;;;;;;14.90;99.90;;;;;;5025938;28;19921;-74
2021/05/23 07:42:13;;;;;;;;;;;14.80;99.90;;;;;;5039646;28;19920;-74
2021/05/23 07:47:33;;;;;;;;;;;15.90;98.50;;;;;;5058686;28;20043;-75
2021/05/23 07:50:03;;;;;;;;;;;17.50;95.00;;;;;;5060406;28;19921;-74
2021/05/23 07:52:32;;;;;;;;;;;16.00;96.80;;;;;;5040186;28;19921;-78
2021/05/23 07:55:00;;;;;;;;;;;14.40;99.10;;;;;;5022828;28;20394;-76
2021/05/23 07:57:28;;;;;;;;;;;14.40;99.90;;;;;;5038455;28;19921;-74
2021/05/23 07:59:56;;;;;;;;;;;14.70;99.20;;;;;;5039530;28;19924;-77
2021/05/23 08:02:24;;;;;;;;;;;14.20;99.70;;;;;;5060374;28;19921;-77
2021/05/23 08:04:52;;;;;;;;;;;14.10;99.90;;;;;;5061635;28;19920;-75
2021/05/23 08:07:21;;;;;;;;;;;13.90;99.90;;;;;;5060305;28;20022;-73
2021/05/23 08:09:49;;;;;;;;;;;13.90;99.90;;;;;;5075846;28;20438;-75
2021/05/23 08:12:18;;;;;;;;;;;13.90;99.90;;;;;;5060077;28;19926;-74
2021/05/23 08:14:46;;;;;;;;;;;15.20;98.40;;;;;;5049581;28;19928;-75
2021/05/23 08:17:14;;;;;;;;;;;14.90;98.10;;;;;;5059468;28;20299;-73
2021/05/23 08:19:42;;;;;;;;;;;14.40;98.30;;;;;;5060684;28;19921;-75
2021/05/23 08:22:10;;;;;;;;;;;14.00;98.20;;;;;;5077686;28;20291;-78
2021/05/23 08:24:39;;;;;;;;;;;15.20;97.50;;;;;;5060239;28;19920;-74
2021/05/23 08:27:06;;;;;;;;;;;16.10;94.40;;;;;;5061528;28;20391;-74
2021/05/23 08:29:36;;;;;;;;;;;15.30;95.60;;;;;;5060615;28;20303;-74
2021/05/23 08:32:04;;;;;;;;;;;14.90;96.10;;;;;;5078748;28;19922;-75
2021/05/23 08:34:32;;;;;;;;;;;14.90;96.70;;;;;;5061544;28;19920;-75
2021/05/23 08:37:01;;;;;;;;;;;14.30;97.70;;;;;;5045959;28;19924;-77
2021/05/23 08:39:30;;;;;;;;;;;14.20;98.60;;;;;;5044405;28;19920;-78
2021/05/23 08:42:00;;;;;;;;;;;16.60;95.80;;;;;;5060209;28;19987;-75
2021/05/23 08:44:28;;;;;;;;;;;18.40;91.30;;;;;;5060487;28;19935;-75
2021/05/23 08:47:01;;;;;;;;;;;19.60;84.10;;;;;;5077805;28;19928;-74
2021/05/23 08:49:31;;;;;;;;;;;18.60;82.80;;;;;;5060654;28;19946;-76
2021/05/23 08:52:29;;;;;;;;;;;18.60;84.50;;;;;;5078878;28;20015;-76
2021/05/23 08:54:58;;;;;;;;;;;18.90;83.40;;;;;;5077834;28;19924;-74
2021/05/23 08:57:29;;;;;;;;;;;17.50;85.30;;;;;;5078342;28;19926;-75
2021/05/23 08:59:57;;;;;;;;;;;16.90;89.60;;;;;;5060387;28;19927;-75
2021/05/23 09:02:26;;;;;;;;;;;16.80;89.50;;;;;;5076677;28;19928;-78
2021/05/23 09:04:55;;;;;;;;;;;15.90;91.20;;;;;;5042810;28;19970;-76
2021/05/23 09:07:23;;;;;;;;;;;15.20;92.40;;;;;;5042338;28;20316;-76
2021/05/23 09:09:52;;;;;;;;;;;14.60;92.80;;;;;;5055639;28;19920;-75
2021/05/23 09:12:20;;;;;;;;;;;14.20;93.70;;;;;;5040291;28;20356;-73
2021/05/23 09:14:50;;;;;;;;;;;14.00;94.00;;;;;;5074823;28;20303;-77
2021/05/23 09:17:19;;;;;;;;;;;15.50;92.90;;;;;;5075987;28;19920;-75
2021/05/23 09:19:48;;;;;;;;;;;18.10;88.20;;;;;;5060209;28;19979;-78
2021/05/23 09:22:16;;;;;;;;;;;20.80;80.60;;;;;;5059766;28;19920;-73
2021/05/23 09:24:52;;;;;;;;;;;20.10;77.20;;;;;;5081663;28;19955;-74
2021/05/23 09:27:21;;;;;;;;;;;19.10;81.90;;;;;;5061747;28;19920;-74
2021/05/23 09:30:01;;;;;;;;;;;17.50;88.20;;;;;;5080926;28;19935;-77
2021/05/23 09:32:28;;;;;;;;;;;16.50;91.30;;;;;;5081336;28;19927;-74
2021/05/23 09:35:21;;;;;;;;;;;15.70;91.90;;;;;;5081018;28;20364;-73
2021/05/23 09:38:00;;;;;;;;;;;14.90;92.80;;;;;;5078915;28;20339;-74
2021/05/23 09:40:28;;;;;;;;;;;14.70;93.50;;;;;;5061323;28;19926;-74
2021/05/23 09:42:56;;;;;;;;;;;15.20;93.30;;;;;;5061516;28;20401;-75
2021/05/23 09:45:37;;;;;;;;;;;15.20;92.90;;;;;;5077477;28;19920;-75
2021/05/23 09:48:06;;;;;;;;;;;15.20;93.40;;;;;;5079301;28;20372;-74
2021/05/23 09:50:38;;;;;;;;;;;15.50;93.30;;;;;;5063015;28;20437;-74
2021/05/23 09:53:16;;;;;;;;;;;15.60;93.10;;;;;;5081692;28;19925;-74
2021/05/23 09:55:51;;;;;;;;;;;15.40;93.80;;;;;;5063078;28;19920;-75
2021/05/23 09:58:20;;;;;;;;;;;16.10;93.50;;;;;;5063193;28;19924;-73
2021/05/23 10:00:48;;;;;;;;;;;15.80;93.80;;;;;;5061852;28;19978;-74
2021/05/23 10:03:24;;;;;;;;;;;15.80;94.60;;;;;;5062861;28;19928;-74
2021/05/23 10:05:52;;;;;;;;;;;16.20;93.00;;;;;;5080197;28;19920;-75
2021/05/23 10:08:20;;;;;;;;;;;15.70;93.70;;;;;;5080737;28;19920;-75
2021/05/23 10:10:49;;;;;;;;;;;15.60;93.80;;;;;;5062615;28;20322;-74
2021/05/23 10:13:18;;;;;;;;;;;16.30;93.00;;;;;;5080787;28;19931;-73
2021/05/23 10:15:46;;;;;;;;;;;16.70;91.70;;;;;;5060632;28;19943;-73
2021/05/23 10:18:15;;;;;;;;;;;17.60;89.70;;;;;;5079104;28;19920;-73
2021/05/23 10:20:44;;;;;;;;;;;19.40;84.00;;;;;;5062816;28;19920;-73
2021/05/23 10:23:13;;;;;;;;;;;21.80;70.70;;;;;;5080124;28;19947;-76
2021/05/23 10:25:46;;;;;;;;;;;21.40;67.30;;;;;;5080783;28;20004;-74
2021/05/23 10:28:14;;;;;;;;;;;20.00;71.10;;;;;;5061771;28;19920;-74
2021/05/23 10:30:50;;;;;;;;;;;17.90;74.30;;;;;;5079923;28;20430;-75
2021/05/23 10:33:19;;;;;;;;;;;16.70;77.50;;;;;;5064502;28;19920;-77
2021/05/23 10:35:48;;;;;;;;;;;16.30;79.30;;;;;;5048544;28;19962;-76
2021/05/23 10:38:18;;;;;;;;;;;15.90;78.90;;;;;;5065597;28;20376;-74
2021/05/23 10:40:51;;;;;;;;;;;15.60;81.00;;;;;;5083531;28;20012;-77
2021/05/23 10:43:26;;;;;;;;;;;15.40;82.70;;;;;;5081668;28;19991;-77
2021/05/23 10:46:04;;;;;;;;;;;14.90;84.00;;;;;;5079931;28;20076;-75
2021/05/23 10:48:35;;;;;;;;;;;14.70;85.00;;;;;;5080435;28;19927;-75
2021/05/23 10:51:13;;;;;;;;;;;14.70;86.30;;;;;;5065421;28;19920;-78
2021/05/23 10:53:41;;;;;;;;;;;14.70;87.00;;;;;;5065398;28;19927;-75
2021/05/23 10:56:20;;;;;;;;;;;15.00;86.90;;;;;;5081679;28;19924;-75
2021/05/23 10:58:52;;;;;;;;;;;15.20;86.30;;;;;;5080760;28;19944;-75
2021/05/23 11:01:45;;;;;;;;;;;15.10;87.10;;;;;;5069921;28;19924;-75
2021/05/23 11:04:15;;;;;;;;;;;15.40;87.00;;;;;;5042433;28;20327;-72
2021/05/23 11:06:43;;;;;;;;;;;15.50;87.20;;;;;;5059115;28;19924;-73
2021/05/23 11:09:13;;;;;;;;;;;15.60;85.80;;;;;;5059954;28;19920;-72
2021/05/23 11:11:41;;;;;;;;;;;15.70;84.00;;;;;;5058501;28;20262;-72
2021/05/23 11:14:18;;;;;;;;;;;16.20;83.60;;;;;;5040653;28;19971;-73
2021/05/23 11:16:47;;;;;;;;;;;16.90;81.60;;;;;;5072765;28;19920;-72
2021/05/23 11:19:17;;;;;;;;;;;17.20;80.00;;;;;;5079098;28;19920;-72
2021/05/23 11:21:45;;;;;;;;;;;17.20;80.00;;;;;;5061640;28;19931;-76
2021/05/23 11:24:14;;;;;;;;;;;17.00;79.50;;;;;;5062137;28;19920;-73
2021/05/23 11:26:42;;;;;;;;;;;16.80;81.70;;;;;;5062410;28;20391;-73
2021/05/23 11:29:10;;;;;;;;;;;16.40;83.10;;;;;;5080616;28;19930;-72
2021/05/23 11:31:38;;;;;;;;;;;16.40;81.90;;;;;;5062093;28;19974;-72
2021/05/23 11:34:07;;;;;;;;;;;16.00;80.80;;;;;;5071881;28;19963;-73
2021/05/23 11:36:36;;;;;;;;;;;15.80;88.10;;;;;;5062688;28;19943;-75
2021/05/23 11:39:05;;;;;;;;;;;15.70;90.40;;;;;;5063218;28;19920;-75
2021/05/23 11:41:34;;;;;;;;;;;15.60;91.00;;;;;;5061758;28;19966;-72
2021/05/23 11:44:05;;;;;;;;;;;15.60;91.20;;;;;;5062274;28;19920;-73
2021/05/23 11:46:34;;;;;;;;;;;15.70;91.00;;;;;;5079130;28;19920;-74
2021/05/23 11:49:02;;;;;;;;;;;15.60;91.30;;;;;;5079002;28;19924;-73
2021/05/23 11:51:32;;;;;;;;;;;15.90;90.80;;;;;;5078560;28;19920;-73
2021/05/23 11:54:01;;;;;;;;;;;16.00;90.70;;;;;;5061260;28;20300;-75
2021/05/23 11:56:30;;;;;;;;;;;15.40;90.30;;;;;;5078358;28;19927;-72
2021/05/23 11:58:58;;;;;;;;;;;15.20;86.90;;;;;;5060724;28;19986;-72
2021/05/23 12:01:27;;;;;;;;;;;15.50;87.30;;;;;;5076094;28;19928;-76
2021/05/23 12:04:00;;;;;;;;;;;15.80;84.80;;;;;;5078100;28;19920;-73
2021/05/23 12:06:28;;;;;;;;;;;15.80;83.90;;;;;;5040111;28;19993;-74
2021/05/23 12:09:15;;;;;;;;;;;15.80;87.50;;;;;;5078079;28;19920;-73
2021/05/23 12:11:47;;;;;;;;;;;15.60;90.90;;;;;;5045118;28;19920;-72
2021/05/23 12:14:20;;;;;;;;;;;15.90;91.10;;;;;;5061309;28;19920;-74
2021/05/23 12:16:49;;;;;;;;;;;15.80;91.00;;;;;;5074432;28;19920;-76
2021/05/23 12:19:17;;;;;;;;;;;16.20;90.40;;;;;;5061481;28;19920;-74
2021/05/23 12:21:45;;;;;;;;;;;16.30;90.70;;;;;;5059768;28;19963;-73
2021/05/23 12:24:13;;;;;;;;;;;16.40;89.70;;;;;;5060154;28;20439;-73
2021/05/23 12:26:42;;;;;;;;;;;16.20;87.30;;;;;;5074802;28;19943;-73
2021/05/23 12:29:13;;;;;;;;;;;16.40;87.80;;;;;;5057887;28;19927;-73
2021/05/23 12:31:47;;;;;;;;;;;16.40;85.80;;;;;;5076196;28;19920;-72
2021/05/23 12:35:08;;;;;;;;;;;16.30;85.10;;;;;;5076977;28;19928;-73
2021/05/23 12:37:36;;;;;;;;;;;16.40;87.00;;;;;;5061671;28;20368;-74
2021/05/23 12:40:30;;;;;;;;;;;16.50;86.10;;;;;;5076960;28;19924;-72
2021/05/23 12:43:11;;;;;;;;;;;16.50;84.30;;;;;;5077129;28;20027;-72
2021/05/23 12:45:40;;;;;;;;;;;16.30;84.10;;;;;;5076377;28;19999;-73
2021/05/23 12:48:09;;;;;;;;;;;15.80;85.20;;;;;;5052117;28;19925;-74
2021/05/23 12:50:39;;;;;;;;;;;16.00;85.50;;;;;;5077662;28;20376;-73
2021/05/23 12:53:08;;;;;;;;;;;16.10;86.30;;;;;;5077698;28;19951;-73
2021/05/23 12:55:40;;;;;;;;;;;16.10;86.80;;;;;;5078306;28;19924;-78
2021/05/23 12:58:08;;;;;;;;;;;15.80;82.10;;;;;;5080586;28;20475;-73
2021/05/23 13:00:47;;;;;;;;;;;15.70;82.20;;;;;;5081079;28;19921;-73
2021/05/23 13:03:15;;;;;;;;;;;15.50;83.80;;;;;;5081761;28;19920;-73
2021/05/23 13:05:54;;;;;;;;;;;15.40;84.70;;;;;;5082421;28;19920;-74
2021/05/23 13:08:22;;;;;;;;;;;15.30;85.00;;;;;;5065623;28;19921;-74
2021/05/23 13:10:50;;;;;;;;;;;15.20;85.40;;;;;;5065597;28;19920;-74
2021/05/23 13:13:18;;;;;;;;;;;15.20;85.90;;;;;;5084147;28;19924;-74
2021/05/23 13:15:46;;;;;;;;;;;15.20;86.70;;;;;;5062914;28;19920;-74
2021/05/23 13:18:16;;;;;;;;;;;15.30;87.50;;;;;;5081694;28;19920;-72
2021/05/23 13:21:17;;;;;;;;;;;15.30;88.10;;;;;;5082521;28;19920;-76
2021/05/23 13:23:46;;;;;;;;;;;15.50;86.90;;;;;;5082377;28;19927;-72
2021/05/23 13:26:16;;;;;;;;;;;15.60;85.60;;;;;;5081635;28;19921;-72
2021/05/23 13:28:44;;;;;;;;;;;15.70;85.70;;;;;;5082178;28;19930;-73
2021/05/23 13:31:12;;;;;;;;;;;15.80;83.90;;;;;;5080797;28;19920;-73
2021/05/23 13:33:41;;;;;;;;;;;16.00;84.40;;;;;;5063039;28;20080;-73
2021/05/23 13:36:10;;;;;;;;;;;16.20;83.30;;;;;;5073395;28;20342;-73
2021/05/23 13:38:39;;;;;;;;;;;16.30;83.30;;;;;;5047129;28;19921;-73
2021/05/23 13:41:07;;;;;;;;;;;16.20;82.40;;;;;;5081972;28;19974;-73
2021/05/23 13:43:36;;;;;;;;;;;16.20;82.90;;;;;;5081795;28;19920;-77
2021/05/23 13:46:05;;;;;;;;;;;16.10;82.40;;;;;;5061557;28;20318;-72
2021/05/23 13:48:35;;;;;;;;;;;15.80;82.50;;;;;;5063438;28;19920;-74
2021/05/23 13:51:04;;;;;;;;;;;15.80;82.60;;;;;;5063890;28;19920;-73
2021/05/23 13:53:32;;;;;;;;;;;15.90;82.90;;;;;;5080827;28;19927;-72
2021/05/23 13:56:00;;;;;;;;;;;16.10;81.60;;;;;;5080589;28;20444;-73
2021/05/23 13:58:28;;;;;;;;;;;16.10;81.00;;;;;;5063312;28;19966;-72
2021/05/23 14:00:56;;;;;;;;;;;16.30;81.70;;;;;;5062542;28;19984;-72
2021/05/23 14:03:24;;;;;;;;;;;16.40;80.50;;;;;;5080742;28;19920;-73
2021/05/23 14:05:53;;;;;;;;;;;16.50;81.30;;;;;;5080364;28;19920;-73
2021/05/23 14:08:22;;;;;;;;;;;16.60;81.40;;;;;;5079329;28;19953;-72
2021/05/23 14:10:53;;;;;;;;;;;17.20;80.90;;;;;;5080111;28;19939;-72
2021/05/23 14:13:21;;;;;;;;;;;17.40;77.90;;;;;;5061185;28;19928;-73
2021/05/23 14:15:50;;;;;;;;;;;17.60;76.00;;;;;;5078645;28;19924;-72
2021/05/23 14:18:19;;;;;;;;;;;17.70;76.80;;;;;;5063301;28;19920;-72
2021/05/23 14:20:47;;;;;;;;;;;18.40;74.20;;;;;;5062866;28;20379;-74
2021/05/23 14:23:15;;;;;;;;;;;18.50;72.90;;;;;;5062912;28;20291;-74
2021/05/23 14:29:00;;;;;;;;;;;17.00;75.50;;;;;;5078216;28;19924;-74
2021/05/23 14:31:28;;;;;;;;;;;16.10;78.00;;;;;;5055956;28;19928;-74
2021/05/23 14:33:57;;;;;;;;;;;16.10;79.50;;;;;;5058977;28;20072;-72
2021/05/23 14:36:25;;;;;;;;;;;16.10;81.10;;;;;;5024996;28;19928;-73
2021/05/23 14:38:59;;;;;;;;;;;15.90;82.20;;;;;;5041498;28;20043;-74
2021/05/23 14:41:27;;;;;;;;;;;16.20;83.40;;;;;;5041811;28;19992;-73